sensor_id;sensor_type;location;lat;lon;timestamp;pressure;altitude;pressure_sealevel;temperature;humidity
76448;BME280;65284;51.040;13.722;2023-02-13T00:01:06;102104.19;;;5.53;92.89
76448;BME280;65284;51.040;13.722;2023-02-13T00:03:33;102103.16;;;5.55;92.64
76448;BME280;65284;51.040;13.722;2023-02-13T00:05:59;102105.91;;;5.54;92.53
76448;BME280;65284;51.040;13.722;2023-02-13T00:08:26;102108.44;;;5.55;92.73
76448;BME280;65284;51.040;13.722;2023-02-13T00:10:52;102107.75;;;5.52;92.74
76448;BME280;65284;51.040;13.722;2023-02-13T00:13:18;102102.31;;;5.55;92.96
76448;BME280;65284;51.040;13.722;2023-02-13T00:15:45;102102.47;;;5.52;92.71
76448;BME280;65284;51.040;13.722;2023-02-13T00:18:11;102098.84;;;5.54;93.31
76448;BME280;65284;51.040;13.722;2023-02-13T00:20:37;102105.19;;;5.50;93.38
76448;BME280;65284;51.040;13.722;2023-02-13T00:23:04;102096.38;;;5.51;93.38
76448;BME280;65284;51.040;13.722;2023-02-13T00:25:30;102095.50;;;5.51;93.34
76448;BME280;65284;51.040;13.722;2023-02-13T00:27:57;102089.47;;;5.48;93.51
76448;BME280;65284;51.040;13.722;2023-02-13T00:30:23;102093.78;;;5.50;93.68
76448;BME280;65284;51.040;13.722;2023-02-13T00:32:49;102093.63;;;5.53;93.21
76448;BME280;65284;51.040;13.722;2023-02-13T00:35:16;102095.34;;;5.54;93.36
76448;BME280;65284;51.040;13.722;2023-02-13T00:37:42;102084.97;;;5.51;93.19
76448;BME280;65284;51.040;13.722;2023-02-13T00:40:09;102085.66;;;5.54;93.33
76448;BME280;65284;51.040;13.722;2023-02-13T00:42:35;102086.66;;;5.52;93.10
76448;BME280;65284;51.040;13.722;2023-02-13T00:45:02;102098.00;;;5.54;93.22
76448;BME280;65284;51.040;13.722;2023-02-13T00:47:28;102091.78;;;5.55;93.21
76448;BME280;65284;51.040;13.722;2023-02-13T00:49:54;102091.63;;;5.58;93.27
76448;BME280;65284;51.040;13.722;2023-02-13T00:52:21;102099.47;;;5.59;93.18
76448;BME280;65284;51.040;13.722;2023-02-13T00:54:47;102088.84;;;5.61;92.75
76448;BME280;65284;51.040;13.722;2023-02-13T00:57:14;102092.25;;;5.63;93.03
76448;BME280;65284;51.040;13.722;2023-02-13T00:59:40;102093.16;;;5.62;93.05
76448;BME280;65284;51.040;13.722;2023-02-13T01:02:06;102100.00;;;5.66;92.65
76448;BME280;65284;51.040;13.722;2023-02-13T01:04:33;102101.84;;;5.64;92.83
76448;BME280;65284;51.040;13.722;2023-02-13T01:06:59;102094.75;;;5.66;92.19
76448;BME280;65284;51.040;13.722;2023-02-13T01:09:25;102100.22;;;5.61;92.53
76448;BME280;65284;51.040;13.722;2023-02-13T01:11:52;102099.63;;;5.56;92.92
76448;BME280;65284;51.040;13.722;2023-02-13T01:14:18;102094.91;;;5.63;92.43
76448;BME280;65284;51.040;13.722;2023-02-13T01:16:45;102096.59;;;5.64;92.74
76448;BME280;65284;51.040;13.722;2023-02-13T01:19:11;102095.81;;;5.62;92.94
76448;BME280;65284;51.040;13.722;2023-02-13T01:21:38;102097.59;;;5.61;92.68
76448;BME280;65284;51.040;13.722;2023-02-13T01:24:04;102094.94;;;5.61;92.52
76448;BME280;65284;51.040;13.722;2023-02-13T01:26:31;102098.59;;;5.59;93.00
76448;BME280;65284;51.040;13.722;2023-02-13T01:28:57;102088.06;;;5.59;92.75
76448;BME280;65284;51.040;13.722;2023-02-13T01:31:24;102094.19;;;5.59;93.03
76448;BME280;65284;51.040;13.722;2023-02-13T01:33:50;102093.16;;;5.62;92.81
76448;BME280;65284;51.040;13.722;2023-02-13T01:36:17;102089.94;;;5.57;93.12
76448;BME280;65284;51.040;13.722;2023-02-13T01:38:43;102086.50;;;5.55;92.72
76448;BME280;65284;51.040;13.722;2023-02-13T01:41:10;102085.56;;;5.56;92.97
76448;BME280;65284;51.040;13.722;2023-02-13T01:43:44;102082.94;;;5.56;92.84
76448;BME280;65284;51.040;13.722;2023-02-13T01:46:12;102082.19;;;5.54;92.84
76448;BME280;65284;51.040;13.722;2023-02-13T01:48:41;102085.66;;;5.54;92.60
76448;BME280;65284;51.040;13.722;2023-02-13T01:51:15;102087.91;;;5.62;92.30
76448;BME280;65284;51.040;13.722;2023-02-13T01:53:47;102081.72;;;5.63;92.38
76448;BME280;65284;51.040;13.722;2023-02-13T01:56:28;102077.06;;;5.68;92.34
76448;BME280;65284;51.040;13.722;2023-02-13T01:59:02;102077.91;;;5.68;92.48
76448;BME280;65284;51.040;13.722;2023-02-13T02:01:30;102074.06;;;5.91;91.26
76448;BME280;65284;51.040;13.722;2023-02-13T02:04:07;102079.50;;;5.88;91.67
76448;BME280;65284;51.040;13.722;2023-02-13T02:06:48;102076.03;;;5.88;91.32
76448;BME280;65284;51.040;13.722;2023-02-13T02:09:25;102074.31;;;5.87;91.17
76448;BME280;65284;51.040;13.722;2023-02-13T02:12:01;102082.78;;;5.93;90.89
76448;BME280;65284;51.040;13.722;2023-02-13T02:14:30;102064.56;;;5.89;91.01
76448;BME280;65284;51.040;13.722;2023-02-13T02:16:57;102074.22;;;5.88;90.81
76448;BME280;65284;51.040;13.722;2023-02-13T02:19:41;102068.97;;;5.88;90.98
76448;BME280;65284;51.040;13.722;2023-02-13T02:22:30;102069.28;;;5.82;90.99
76448;BME280;65284;51.040;13.722;2023-02-13T02:31:24;102063.53;;;5.91;91.02
76448;BME280;65284;51.040;13.722;2023-02-13T02:37:12;102063.00;;;5.85;90.68
76448;BME280;65284;51.040;13.722;2023-02-13T02:48:24;102066.47;;;5.85;90.35
76448;BME280;65284;51.040;13.722;2023-02-13T02:51:20;102061.03;;;5.88;90.56
76448;BME280;65284;51.040;13.722;2023-02-13T02:54:06;102077.81;;;5.87;90.72
76448;BME280;65284;51.040;13.722;2023-02-13T02:56:57;102070.22;;;5.81;90.79
76448;BME280;65284;51.040;13.722;2023-02-13T02:59:27;102067.09;;;5.90;90.33
76448;BME280;65284;51.040;13.722;2023-02-13T03:02:14;102076.44;;;5.80;90.64
76448;BME280;65284;51.040;13.722;2023-02-13T03:05:00;102076.59;;;5.77;90.98
76448;BME280;65284;51.040;13.722;2023-02-13T03:07:46;102078.44;;;5.75;91.27
76448;BME280;65284;51.040;13.722;2023-02-13T03:10:19;102065.03;;;5.80;90.62
76448;BME280;65284;51.040;13.722;2023-02-13T03:13:14;102073.69;;;5.82;91.10
76448;BME280;65284;51.040;13.722;2023-02-13T03:15:44;102062.78;;;5.72;91.32
76448;BME280;65284;51.040;13.722;2023-02-13T03:18:31;102075.03;;;5.73;91.03
76448;BME280;65284;51.040;13.722;2023-02-13T03:21:42;102075.13;;;5.72;91.09
76448;BME280;65284;51.040;13.722;2023-02-13T03:24:34;102072.53;;;5.70;91.40
76448;BME280;65284;51.040;13.722;2023-02-13T03:27:10;102069.91;;;5.70;91.34
76448;BME280;65284;51.040;13.722;2023-02-13T03:29:58;102081.47;;;5.67;91.60
76448;BME280;65284;51.040;13.722;2023-02-13T03:33:16;102085.13;;;5.65;91.65
76448;BME280;65284;51.040;13.722;2023-02-13T03:35:59;102084.09;;;5.67;91.30
76448;BME280;65284;51.040;13.722;2023-02-13T03:38:58;102077.34;;;5.62;91.89
76448;BME280;65284;51.040;13.722;2023-02-13T03:41:51;102081.63;;;5.64;91.54
76448;BME280;65284;51.040;13.722;2023-02-13T03:44:28;102086.19;;;5.61;91.61
76448;BME280;65284;51.040;13.722;2023-02-13T03:46:58;102085.56;;;5.56;91.85
76448;BME280;65284;51.040;13.722;2023-02-13T03:49:33;102087.28;;;5.57;91.89
76448;BME280;65284;51.040;13.722;2023-02-13T03:52:28;102089.78;;;5.60;91.81
76448;BME280;65284;51.040;13.722;2023-02-13T03:55:00;102085.56;;;5.56;91.93
76448;BME280;65284;51.040;13.722;2023-02-13T03:57:49;102077.50;;;5.59;91.57
76448;BME280;65284;51.040;13.722;2023-02-13T04:00:38;102092.31;;;5.61;91.58
76448;BME280;65284;51.040;13.722;2023-02-13T04:03:16;102075.81;;;5.58;91.77
76448;BME280;65284;51.040;13.722;2023-02-13T04:05:52;102082.78;;;5.59;91.36
76448;BME280;65284;51.040;13.722;2023-02-13T04:08:19;102084.19;;;5.66;91.43
76448;BME280;65284;51.040;13.722;2023-02-13T04:10:52;102081.94;;;5.58;91.42
76448;BME280;65284;51.040;13.722;2023-02-13T04:13:33;102086.34;;;5.58;91.66
76448;BME280;65284;51.040;13.722;2023-02-13T04:16:10;102082.19;;;5.54;91.59
76448;BME280;65284;51.040;13.722;2023-02-13T04:18:38;102088.06;;;5.59;91.49
76448;BME280;65284;51.040;13.722;2023-02-13T04:21:06;102082.94;;;5.56;91.58
76448;BME280;65284;51.040;13.722;2023-02-13T04:23:33;102080.31;;;5.56;91.27
76448;BME280;65284;51.040;13.722;2023-02-13T04:26:05;102084.66;;;5.57;91.43
76448;BME280;65284;51.040;13.722;2023-02-13T04:28:33;102081.41;;;5.52;91.23
76448;BME280;65284;51.040;13.722;2023-02-13T04:30:59;102080.41;;;5.54;91.35
76448;BME280;65284;51.040;13.722;2023-02-13T04:33:26;102073.34;;;5.55;91.23
76448;BME280;65284;51.040;13.722;2023-02-13T04:35:53;102082.41;;;5.49;91.63
76448;BME280;65284;51.040;13.722;2023-02-13T04:38:19;102080.44;;;5.53;91.80
76448;BME280;65284;51.040;13.722;2023-02-13T04:40:45;102086.72;;;5.50;91.74
76448;BME280;65284;51.040;13.722;2023-02-13T04:43:12;102076.44;;;5.45;91.46
76448;BME280;65284;51.040;13.722;2023-02-13T04:45:38;102086.97;;;5.45;91.79
76448;BME280;65284;51.040;13.722;2023-02-13T04:48:05;102080.91;;;5.43;91.64
76448;BME280;65284;51.040;13.722;2023-02-13T04:50:31;102077.53;;;5.41;92.18
76448;BME280;65284;51.040;13.722;2023-02-13T04:52:57;102080.16;;;5.41;92.08
76448;BME280;65284;51.040;13.722;2023-02-13T04:55:25;102085.59;;;5.38;92.13
76448;BME280;65284;51.040;13.722;2023-02-13T04:57:53;102078.75;;;5.34;92.85
76448;BME280;65284;51.040;13.722;2023-02-13T05:00:21;102073.31;;;5.37;92.45
76448;BME280;65284;51.040;13.722;2023-02-13T05:02:48;102075.16;;;5.35;93.03
76448;BME280;65284;51.040;13.722;2023-02-13T05:05:14;102072.78;;;5.31;92.67
76448;BME280;65284;51.040;13.722;2023-02-13T05:07:41;102072.31;;;5.40;92.45
76448;BME280;65284;51.040;13.722;2023-02-13T05:10:09;102071.63;;;5.36;92.73
76448;BME280;65284;51.040;13.722;2023-02-13T05:12:36;102068.31;;;5.33;92.19
76448;BME280;65284;51.040;13.722;2023-02-13T05:15:03;102073.16;;;5.40;91.92
76448;BME280;65284;51.040;13.722;2023-02-13T05:17:30;102070.53;;;5.40;91.80
76448;BME280;65284;51.040;13.722;2023-02-13T05:19:56;102069.38;;;5.46;91.89
76448;BME280;65284;51.040;13.722;2023-02-13T05:22:24;102079.22;;;5.42;91.29
76448;BME280;65284;51.040;13.722;2023-02-13T05:25:08;102077.91;;;5.34;91.54
76448;BME280;65284;51.040;13.722;2023-02-13T05:27:35;102082.84;;;5.40;91.67
76448;BME280;65284;51.040;13.722;2023-02-13T05:30:01;102078.91;;;5.31;91.42
76448;BME280;65284;51.040;13.722;2023-02-13T05:32:28;102086.81;;;5.31;91.57
76448;BME280;65284;51.040;13.722;2023-02-13T05:34:54;102085.72;;;5.35;91.55
76448;BME280;65284;51.040;13.722;2023-02-13T05:37:21;102078.91;;;5.31;91.65
76448;BME280;65284;51.040;13.722;2023-02-13T05:39:47;102079.75;;;5.32;91.76
76448;BME280;65284;51.040;13.722;2023-02-13T05:42:13;102077.06;;;5.33;91.83
76448;BME280;65284;51.040;13.722;2023-02-13T05:44:40;102081.22;;;5.37;91.34
76448;BME280;65284;51.040;13.722;2023-02-13T05:47:06;102083.31;;;5.31;91.49
76448;BME280;65284;51.040;13.722;2023-02-13T05:49:33;102081.63;;;5.30;91.95
76448;BME280;65284;51.040;13.722;2023-02-13T05:51:59;102077.06;;;5.33;91.80
76448;BME280;65284;51.040;13.722;2023-02-13T05:54:28;102073.63;;;5.31;91.41
76448;BME280;65284;51.040;13.722;2023-02-13T05:56:55;102083.22;;;5.32;91.75
76448;BME280;65284;51.040;13.722;2023-02-13T05:59:21;102086.00;;;5.29;91.56
76448;BME280;65284;51.040;13.722;2023-02-13T06:01:49;102079.91;;;5.29;91.69
76448;BME280;65284;51.040;13.722;2023-02-13T06:04:15;102086.00;;;5.29;91.79
76448;BME280;65284;51.040;13.722;2023-02-13T06:06:42;102082.47;;;5.30;91.26
76448;BME280;65284;51.040;13.722;2023-02-13T06:09:09;102079.00;;;5.30;91.44
76448;BME280;65284;51.040;13.722;2023-02-13T06:11:36;102075.31;;;5.32;91.10
76448;BME280;65284;51.040;13.722;2023-02-13T06:14:03;102085.09;;;5.30;91.23
76448;BME280;65284;51.040;13.722;2023-02-13T06:16:29;102089.28;;;5.34;91.13
76448;BME280;65284;51.040;13.722;2023-02-13T06:18:59;102088.59;;;5.31;91.18
76448;BME280;65284;51.040;13.722;2023-02-13T06:21:26;102095.97;;;5.41;91.15
76448;BME280;65284;51.040;13.722;2023-02-13T06:23:52;102098.19;;;5.32;91.53
76448;BME280;65284;51.040;13.722;2023-02-13T06:26:19;102093.84;;;5.31;91.30
76448;BME280;65284;51.040;13.722;2023-02-13T06:28:45;102093.72;;;5.34;91.17
76448;BME280;65284;51.040;13.722;2023-02-13T06:31:11;102092.84;;;5.33;91.05
76448;BME280;65284;51.040;13.722;2023-02-13T06:33:38;102101.31;;;5.40;90.66
76448;BME280;65284;51.040;13.722;2023-02-13T06:36:05;102102.69;;;5.30;91.14
76448;BME280;65284;51.040;13.722;2023-02-13T06:38:31;102104.56;;;5.28;91.47
76448;BME280;65284;51.040;13.722;2023-02-13T06:40:59;102108.13;;;5.27;91.41
76448;BME280;65284;51.040;13.722;2023-02-13T06:43:27;102115.78;;;5.31;90.87
76448;BME280;65284;51.040;13.722;2023-02-13T06:45:53;102106.66;;;5.38;91.16
76448;BME280;65284;51.040;13.722;2023-02-13T06:48:19;102115.09;;;5.28;91.03
76448;BME280;65284;51.040;13.722;2023-02-13T06:50:46;102112.34;;;5.29;91.70
76448;BME280;65284;51.040;13.722;2023-02-13T06:53:12;102113.31;;;5.28;91.40
76448;BME280;65284;51.040;13.722;2023-02-13T06:55:38;102114.09;;;5.30;91.24
76448;BME280;65284;51.040;13.722;2023-02-13T06:58:05;102119.50;;;5.27;91.37
76448;BME280;65284;51.040;13.722;2023-02-13T07:00:32;102123.06;;;5.26;91.76
76448;BME280;65284;51.040;13.722;2023-02-13T07:03:03;102121.19;;;5.28;91.55
76448;BME280;65284;51.040;13.722;2023-02-13T07:05:31;102121.50;;;5.22;91.62
76448;BME280;65284;51.040;13.722;2023-02-13T07:07:58;102128.16;;;5.29;91.95
76448;BME280;65284;51.040;13.722;2023-02-13T07:10:24;102131.03;;;5.24;91.83
76448;BME280;65284;51.040;13.722;2023-02-13T07:12:51;102125.69;;;5.26;91.78
76448;BME280;65284;51.040;13.722;2023-02-13T07:15:31;102132.03;;;5.22;91.39
76448;BME280;65284;51.040;13.722;2023-02-13T07:17:58;102119.81;;;5.21;91.65
76448;BME280;65284;51.040;13.722;2023-02-13T07:20:26;102124.69;;;5.29;90.96
76448;BME280;65284;51.040;13.722;2023-02-13T07:22:57;102129.44;;;5.39;91.01
76448;BME280;65284;51.040;13.722;2023-02-13T07:25:23;102128.97;;;5.31;91.15
76448;BME280;65284;51.040;13.722;2023-02-13T07:27:50;102133.44;;;5.29;91.20
76448;BME280;65284;51.040;13.722;2023-02-13T07:30:16;102130.75;;;5.31;91.22
76448;BME280;65284;51.040;13.722;2023-02-13T07:32:43;102132.69;;;5.27;91.11
76448;BME280;65284;51.040;13.722;2023-02-13T07:35:09;102139.78;;;5.25;91.30
76448;BME280;65284;51.040;13.722;2023-02-13T07:37:36;102132.84;;;5.24;91.12
76448;BME280;65284;51.040;13.722;2023-02-13T07:40:02;102127.25;;;5.30;90.97
76448;BME280;65284;51.040;13.722;2023-02-13T07:42:32;102135.63;;;5.21;91.12
76448;BME280;65284;51.040;13.722;2023-02-13T07:45:00;102134.53;;;5.25;90.97
76448;BME280;65284;51.040;13.722;2023-02-13T07:47:26;102127.56;;;5.24;91.20
76448;BME280;65284;51.040;13.722;2023-02-13T07:49:52;102131.59;;;5.31;90.93
76448;BME280;65284;51.040;13.722;2023-02-13T07:52:19;102133.59;;;5.26;90.54
76448;BME280;65284;51.040;13.722;2023-02-13T07:54:46;102131.75;;;5.28;90.69
76448;BME280;65284;51.040;13.722;2023-02-13T07:57:14;102133.03;;;5.38;90.60
76448;BME280;65284;51.040;13.722;2023-02-13T07:59:41;102130.59;;;5.34;90.50
76448;BME280;65284;51.040;13.722;2023-02-13T08:02:11;102148.53;;;5.44;89.90
76448;BME280;65284;51.040;13.722;2023-02-13T08:04:39;102144.72;;;5.33;90.15
76448;BME280;65284;51.040;13.722;2023-02-13T08:07:06;102146.31;;;5.35;89.87
76448;BME280;65284;51.040;13.722;2023-02-13T08:09:32;102139.34;;;5.34;90.25
76448;BME280;65284;51.040;13.722;2023-02-13T08:12:17;102144.41;;;5.39;90.44
76448;BME280;65284;51.040;13.722;2023-02-13T08:14:44;102150.53;;;5.39;90.24
76448;BME280;65284;51.040;13.722;2023-02-13T08:17:10;102150.38;;;5.42;89.62
76448;BME280;65284;51.040;13.722;2023-02-13T08:19:36;102150.38;;;5.42;89.53
76448;BME280;65284;51.040;13.722;2023-02-13T08:22:03;102150.22;;;5.45;89.51
76448;BME280;65284;51.040;13.722;2023-02-13T08:24:31;102156.19;;;5.49;89.42
76448;BME280;65284;51.040;13.722;2023-02-13T08:26:57;102144.50;;;5.55;88.83
76448;BME280;65284;51.040;13.722;2023-02-13T08:29:24;102150.06;;;5.48;88.98
76448;BME280;65284;51.040;13.722;2023-02-13T08:31:50;102151.63;;;5.53;89.23
76448;BME280;65284;51.040;13.722;2023-02-13T08:34:16;102152.56;;;5.52;88.85
76448;BME280;65284;51.040;13.722;2023-02-13T08:36:43;102154.34;;;5.51;88.88
76448;BME280;65284;51.040;13.722;2023-02-13T08:39:09;102162.31;;;5.50;89.38
76448;BME280;65284;51.040;13.722;2023-02-13T08:41:36;102158.63;;;5.54;88.60
76448;BME280;65284;51.040;13.722;2023-02-13T08:44:02;102160.47;;;5.52;88.46
76448;BME280;65284;51.040;13.722;2023-02-13T08:46:29;102155.34;;;5.48;88.61
76448;BME280;65284;51.040;13.722;2023-02-13T08:48:55;102159.31;;;5.57;88.61
76448;BME280;65284;51.040;13.722;2023-02-13T08:51:22;102165.28;;;5.61;88.74
76448;BME280;65284;51.040;13.722;2023-02-13T08:53:48;102158.16;;;5.63;88.19
76448;BME280;65284;51.040;13.722;2023-02-13T08:56:15;102152.72;;;5.66;88.51
76448;BME280;65284;51.040;13.722;2023-02-13T08:58:42;102152.78;;;5.64;88.51
76448;BME280;65284;51.040;13.722;2023-02-13T09:01:08;102150.88;;;5.68;88.00
76448;BME280;65284;51.040;13.722;2023-02-13T09:03:35;102157.84;;;5.69;87.99
76448;BME280;65284;51.040;13.722;2023-02-13T09:06:02;102150.88;;;5.68;87.62
76448;BME280;65284;51.040;13.722;2023-02-13T09:08:28;102155.66;;;5.60;88.17
76448;BME280;65284;51.040;13.722;2023-02-13T09:10:59;102166.97;;;5.62;88.46
76448;BME280;65284;51.040;13.722;2023-02-13T09:13:29;102169.34;;;5.68;88.79
76448;BME280;65284;51.040;13.722;2023-02-13T09:15:59;102167.84;;;5.62;88.46
76448;BME280;65284;51.040;13.722;2023-02-13T09:18:27;102175.50;;;5.67;87.92
76448;BME280;65284;51.040;13.722;2023-02-13T09:21:01;102174.50;;;5.69;87.85
76448;BME280;65284;51.040;13.722;2023-02-13T09:23:41;102169.78;;;5.76;87.86
76448;BME280;65284;51.040;13.722;2023-02-13T09:26:10;102169.19;;;5.71;87.68
76448;BME280;65284;51.040;13.722;2023-02-13T09:28:37;102166.75;;;5.66;87.43
76448;BME280;65284;51.040;13.722;2023-02-13T09:31:08;102160.47;;;5.69;87.37
76448;BME280;65284;51.040;13.722;2023-02-13T09:33:36;102171.09;;;5.67;87.37
76448;BME280;65284;51.040;13.722;2023-02-13T09:36:07;102170.63;;;5.77;86.98
76448;BME280;65284;51.040;13.722;2023-02-13T09:38:34;102164.19;;;5.82;87.39
76448;BME280;65284;51.040;13.722;2023-02-13T09:41:11;102174.91;;;5.79;87.29
76448;BME280;65284;51.040;13.722;2023-02-13T09:43:51;102167.47;;;5.87;86.63
76448;BME280;65284;51.040;13.722;2023-02-13T09:46:30;102162.69;;;5.96;86.30
76448;BME280;65284;51.040;13.722;2023-02-13T09:49:02;102177.75;;;6.11;85.92
76448;BME280;65284;51.040;13.722;2023-02-13T09:51:31;102171.25;;;6.01;85.41
76448;BME280;65284;51.040;13.722;2023-02-13T09:54:02;102171.84;;;6.06;85.71
76448;BME280;65284;51.040;13.722;2023-02-13T09:56:57;102177.69;;;6.12;85.43
76448;BME280;65284;51.040;13.722;2023-02-13T09:59:38;102184.66;;;6.13;85.56
76448;BME280;65284;51.040;13.722;2023-02-13T10:02:33;102185.03;;;6.23;84.20
76448;BME280;65284;51.040;13.722;2023-02-13T10:05:06;102183.81;;;6.13;84.68
76448;BME280;65284;51.040;13.722;2023-02-13T10:10:34;102184.66;;;6.13;84.73
76448;BME280;65284;51.040;13.722;2023-02-13T10:13:18;102188.13;;;6.14;84.26
76448;BME280;65284;51.040;13.722;2023-02-13T10:18:47;102187.03;;;6.18;83.82
76448;BME280;65284;51.040;13.722;2023-02-13T10:21:19;102191.56;;;6.16;84.20
76448;BME280;65284;51.040;13.722;2023-02-13T10:23:57;102183.81;;;6.13;83.83
76448;BME280;65284;51.040;13.722;2023-02-13T10:26:30;102180.38;;;6.11;84.17
76448;BME280;65284;51.040;13.722;2023-02-13T10:29:19;102180.22;;;6.14;84.37
76448;BME280;65284;51.040;13.722;2023-02-13T10:32:10;102177.34;;;6.19;82.36
76448;BME280;65284;51.040;13.722;2023-02-13T10:34:44;102166.47;;;6.25;82.40
76448;BME280;65284;51.040;13.722;2023-02-13T10:37:14;102168.28;;;6.24;82.77
76448;BME280;65284;51.040;13.722;2023-02-13T10:39:42;102166.22;;;6.29;82.65
76448;BME280;65284;51.040;13.722;2023-02-13T10:42:22;102165.16;;;6.33;82.58
76448;BME280;65284;51.040;13.722;2023-02-13T10:45:21;102165.00;;;6.36;81.65
76448;BME280;65284;51.040;13.722;2023-02-13T10:50:43;102154.59;;;6.33;81.49
76448;BME280;65284;51.040;13.722;2023-02-13T10:59:02;102145.41;;;6.41;81.55
76448;BME280;65284;51.040;13.722;2023-02-13T11:01:52;102138.94;;;6.30;81.34
76448;BME280;65284;51.040;13.722;2023-02-13T11:04:21;102127.75;;;6.25;81.83
76448;BME280;65284;51.040;13.722;2023-02-13T11:06:58;102135.66;;;6.25;81.81
76448;BME280;65284;51.040;13.722;2023-02-13T11:09:26;102135.50;;;6.28;81.55
76448;BME280;65284;51.040;13.722;2023-02-13T11:11:53;102127.25;;;6.34;81.04
76448;BME280;65284;51.040;13.722;2023-02-13T11:14:25;102140.94;;;6.25;81.01
76448;BME280;65284;51.040;13.722;2023-02-13T11:17:02;102135.50;;;6.28;81.24
76448;BME280;65284;51.040;13.722;2023-02-13T11:19:32;102138.94;;;6.30;80.98
76448;BME280;65284;51.040;13.722;2023-02-13T11:22:04;102127.31;;;6.33;81.00
76448;BME280;65284;51.040;13.722;2023-02-13T11:24:33;102127.25;;;6.34;80.51
76448;BME280;65284;51.040;13.722;2023-02-13T11:27:03;102128.03;;;6.36;80.96
76448;BME280;65284;51.040;13.722;2023-02-13T11:29:56;102131.25;;;6.42;80.93
76448;BME280;65284;51.040;13.722;2023-02-13T11:32:25;102122.75;;;6.36;80.59
76448;BME280;65284;51.040;13.722;2023-02-13T11:34:52;102123.94;;;6.31;81.24
76448;BME280;65284;51.040;13.722;2023-02-13T11:37:28;102124.78;;;6.31;80.52
76448;BME280;65284;51.040;13.722;2023-02-13T11:39:57;102121.19;;;6.32;80.74
76448;BME280;65284;51.040;13.722;2023-02-13T11:42:29;102122.94;;;6.33;80.24
76448;BME280;65284;51.040;13.722;2023-02-13T11:45:03;102113.63;;;6.26;80.52
76448;BME280;65284;51.040;13.722;2023-02-13T11:47:38;102114.22;;;6.31;80.64
76448;BME280;65284;51.040;13.722;2023-02-13T11:50:30;102116.63;;;6.36;80.65
76448;BME280;65284;51.040;13.722;2023-02-13T11:53:00;102110.94;;;6.44;80.33
76448;BME280;65284;51.040;13.722;2023-02-13T11:55:33;102105.41;;;6.48;80.65
76448;BME280;65284;51.040;13.722;2023-02-13T12:00:41;102102.19;;;6.59;79.50
76448;BME280;65284;51.040;13.722;2023-02-13T12:06:10;102096.72;;;6.62;79.56
76448;BME280;65284;51.040;13.722;2023-02-13T12:08:43;102099.81;;;6.70;77.71
76448;BME280;65284;51.040;13.722;2023-02-13T12:11:35;102091.44;;;6.62;78.31
76448;BME280;65284;51.040;13.722;2023-02-13T12:14:04;102086.59;;;6.70;78.06
76448;BME280;65284;51.040;13.722;2023-02-13T12:16:35;102093.16;;;6.79;78.06
76448;BME280;65284;51.040;13.722;2023-02-13T12:19:08;102089.75;;;6.77;77.76
76448;BME280;65284;51.040;13.722;2023-02-13T12:22:03;102079.56;;;6.87;75.74
76448;BME280;65284;51.040;13.722;2023-02-13T12:27:51;102075.78;;;6.91;75.49
76448;BME280;65284;51.040;13.722;2023-02-13T12:33:21;102066.56;;;6.98;74.93
76448;BME280;65284;51.040;13.722;2023-02-13T12:35:56;102062.84;;;7.02;74.80
76448;BME280;65284;51.040;13.722;2023-02-13T12:38:52;102070.16;;;6.97;74.58
76448;BME280;65284;51.040;13.722;2023-02-13T12:41:29;102066.06;;;7.07;75.54
76448;BME280;65284;51.040;13.722;2023-02-13T12:47:23;102066.56;;;6.98;75.27
76448;BME280;65284;51.040;13.722;2023-02-13T12:50:01;102061.47;;;6.95;74.40
76448;BME280;65284;51.040;13.722;2023-02-13T12:52:44;102067.88;;;6.75;74.95
76448;BME280;65284;51.040;13.722;2023-02-13T12:55:36;102048.63;;;6.73;74.76
76448;BME280;65284;51.040;13.722;2023-02-13T12:58:39;102068.63;;;6.77;75.23
76448;BME280;65284;51.040;13.722;2023-02-13T13:01:25;102061.41;;;6.80;74.85
76448;BME280;65284;51.040;13.722;2023-02-13T13:04:15;102059.50;;;6.82;74.99
76448;BME280;65284;51.040;13.722;2023-02-13T13:06:56;102065.91;;;6.78;75.02
76448;BME280;65284;51.040;13.722;2023-02-13T13:12:54;102041.53;;;6.73;76.35
76448;BME280;65284;51.040;13.722;2023-02-13T13:15:54;102043.09;;;6.61;77.06
76448;BME280;65284;51.040;13.722;2023-02-13T13:18:29;102042.84;;;6.66;77.23
76448;BME280;65284;51.040;13.722;2023-02-13T13:21:01;102047.16;;;6.67;77.35
76448;BME280;65284;51.040;13.722;2023-02-13T13:28:55;102051.69;;;6.81;77.30
76448;BME280;65284;51.040;13.722;2023-02-13T13:31:23;102046.47;;;6.79;76.76
76448;BME280;65284;51.040;13.722;2023-02-13T13:33:55;102073.41;;;6.70;76.25
76448;BME280;65284;51.040;13.722;2023-02-13T13:36:35;102062.00;;;6.70;76.67
76448;BME280;65284;51.040;13.722;2023-02-13T13:39:18;102049.47;;;6.73;77.03
76448;BME280;65284;51.040;13.722;2023-02-13T13:44:52;102059.97;;;6.75;76.69
76448;BME280;65284;51.040;13.722;2023-02-13T13:47:31;102068.63;;;6.61;77.04
76448;BME280;65284;51.040;13.722;2023-02-13T13:50:02;102070.56;;;6.42;77.78
76448;BME280;65284;51.040;13.722;2023-02-13T13:52:31;102067.91;;;6.42;78.00
76448;BME280;65284;51.040;13.722;2023-02-13T13:55:00;102062.13;;;6.35;78.52
76448;BME280;65284;51.040;13.722;2023-02-13T14:02:41;102060.94;;;6.41;77.79
76448;BME280;65284;51.040;13.722;2023-02-13T14:05:30;102069.81;;;6.40;77.38
76448;BME280;65284;51.040;13.722;2023-02-13T14:08:01;102069.81;;;6.40;76.76
76448;BME280;65284;51.040;13.722;2023-02-13T14:23:25;102075.25;;;6.36;75.36
76448;BME280;65284;51.040;13.722;2023-02-13T14:29:13;102068.53;;;6.31;75.79
76448;BME280;65284;51.040;13.722;2023-02-13T14:31:57;102066.41;;;6.37;76.42
76448;BME280;65284;51.040;13.722;2023-02-13T14:34:28;102065.03;;;6.30;76.36
76448;BME280;65284;51.040;13.722;2023-02-13T14:39:34;102056.78;;;6.36;76.74